sensor_id;sensor_type;location;lat;lon;timestamp;temperature;humidity
46784;DHT22;32544;52.832;13.816;2022-07-15T00:00:00;24.60;40.00
46784;DHT22;32544;52.832;13.816;2022-07-15T00:01:01;24.60;40.00
46784;DHT22;32544;52.832;13.816;2022-07-15T00:02:01;24.60;40.10
46784;DHT22;32544;52.832;13.816;2022-07-15T00:03:02;24.60;40.10
46784;DHT22;32544;52.832;13.816;2022-07-15T00:04:03;24.60;40.10
46784;DHT22;32544;52.832;13.816;2022-07-15T00:05:04;24.60;40.30
46784;DHT22;32544;52.832;13.816;2022-07-15T00:06:05;24.60;40.30
46784;DHT22;32544;52.832;13.816;2022-07-15T00:07:06;24.50;40.40
46784;DHT22;32544;52.832;13.816;2022-07-15T00:08:06;24.50;40.30
46784;DHT22;32544;52.832;13.816;2022-07-15T00:09:07;24.50;40.20
46784;DHT22;32544;52.832;13.816;2022-07-15T00:10:08;24.60;40.20
46784;DHT22;32544;52.832;13.816;2022-07-15T00:11:15;24.60;40.40
46784;DHT22;32544;52.832;13.816;2022-07-15T00:12:15;24.50;40.20
46784;DHT22;32544;52.832;13.816;2022-07-15T00:13:16;24.50;40.10
46784;DHT22;32544;52.832;13.816;2022-07-15T00:14:16;24.50;40.10
46784;DHT22;32544;52.832;13.816;2022-07-15T00:15:18;24.50;40.30
46784;DHT22;32544;52.832;13.816;2022-07-15T00:16:19;24.50;40.40
46784;DHT22;32544;52.832;13.816;2022-07-15T00:17:20;24.50;40.40
46784;DHT22;32544;52.832;13.816;2022-07-15T00:18:20;24.50;40.30
46784;DHT22;32544;52.832;13.816;2022-07-15T00:19:21;24.50;40.40
46784;DHT22;32544;52.832;13.816;2022-07-15T00:20:22;24.50;41.00
46784;DHT22;32544;52.832;13.816;2022-07-15T00:21:23;24.50;40.40
46784;DHT22;32544;52.832;13.816;2022-07-15T00:22:23;24.50;40.50
46784;DHT22;32544;52.832;13.816;2022-07-15T00:23:24;24.50;40.40
46784;DHT22;32544;52.832;13.816;2022-07-15T00:24:24;24.50;40.40
46784;DHT22;32544;52.832;13.816;2022-07-15T00:25:25;24.50;40.40
46784;DHT22;32544;52.832;13.816;2022-07-15T00:26:25;24.50;40.50
46784;DHT22;32544;52.832;13.816;2022-07-15T00:27:26;24.50;40.40
46784;DHT22;32544;52.832;13.816;2022-07-15T00:28:27;24.40;40.60
46784;DHT22;32544;52.832;13.816;2022-07-15T00:29:29;24.40;40.60
46784;DHT22;32544;52.832;13.816;2022-07-15T00:30:30;24.40;40.40
46784;DHT22;32544;52.832;13.816;2022-07-15T00:31:31;24.50;40.50
46784;DHT22;32544;52.832;13.816;2022-07-15T00:32:32;24.40;40.70
46784;DHT22;32544;52.832;13.816;2022-07-15T00:33:32;24.40;40.80
46784;DHT22;32544;52.832;13.816;2022-07-15T00:34:33;24.40;40.90
46784;DHT22;32544;52.832;13.816;2022-07-15T00:35:34;24.40;40.70
46784;DHT22;32544;52.832;13.816;2022-07-15T00:36:35;24.40;40.60
46784;DHT22;32544;52.832;13.816;2022-07-15T00:37:36;24.40;40.70
46784;DHT22;32544;52.832;13.816;2022-07-15T00:38:36;24.40;40.70
46784;DHT22;32544;52.832;13.816;2022-07-15T00:39:37;24.30;40.80
46784;DHT22;32544;52.832;13.816;2022-07-15T00:40:42;24.30;40.70
46784;DHT22;32544;52.832;13.816;2022-07-15T00:41:43;24.40;40.70
46784;DHT22;32544;52.832;13.816;2022-07-15T00:42:44;24.30;40.70
46784;DHT22;32544;52.832;13.816;2022-07-15T00:43:45;24.40;40.90
46784;DHT22;32544;52.832;13.816;2022-07-15T00:44:46;24.30;40.70
46784;DHT22;32544;52.832;13.816;2022-07-15T00:45:47;24.40;40.80
46784;DHT22;32544;52.832;13.816;2022-07-15T00:46:47;24.30;40.80
46784;DHT22;32544;52.832;13.816;2022-07-15T00:47:52;24.30;40.70
46784;DHT22;32544;52.832;13.816;2022-07-15T00:48:54;24.30;40.80
46784;DHT22;32544;52.832;13.816;2022-07-15T00:49:54;24.30;40.90
46784;DHT22;32544;52.832;13.816;2022-07-15T00:50:55;24.30;40.90
46784;DHT22;32544;52.832;13.816;2022-07-15T00:51:56;24.30;40.90
46784;DHT22;32544;52.832;13.816;2022-07-15T00:53:00;24.30;40.90
46784;DHT22;32544;52.832;13.816;2022-07-15T00:54:01;24.30;41.10
46784;DHT22;32544;52.832;13.816;2022-07-15T00:55:02;24.30;41.10
46784;DHT22;32544;52.832;13.816;2022-07-15T00:56:04;24.30;41.10
46784;DHT22;32544;52.832;13.816;2022-07-15T00:57:07;24.30;40.90
46784;DHT22;32544;52.832;13.816;2022-07-15T00:58:08;24.30;40.90
46784;DHT22;32544;52.832;13.816;2022-07-15T00:59:11;24.30;40.90
46784;DHT22;32544;52.832;13.816;2022-07-15T01:00:12;24.30;40.90
46784;DHT22;32544;52.832;13.816;2022-07-15T01:01:13;24.30;40.70
46784;DHT22;32544;52.832;13.816;2022-07-15T01:02:15;24.30;40.90
46784;DHT22;32544;52.832;13.816;2022-07-15T01:03:16;24.30;41.10
46784;DHT22;32544;52.832;13.816;2022-07-15T01:04:17;24.30;41.00
46784;DHT22;32544;52.832;13.816;2022-07-15T01:05:19;24.30;41.10
46784;DHT22;32544;52.832;13.816;2022-07-15T01:06:19;24.30;41.10
46784;DHT22;32544;52.832;13.816;2022-07-15T01:07:20;24.30;41.10
46784;DHT22;32544;52.832;13.816;2022-07-15T01:08:21;24.30;41.10
46784;DHT22;32544;52.832;13.816;2022-07-15T01:09:22;24.30;41.00
46784;DHT22;32544;52.832;13.816;2022-07-15T01:10:23;24.30;40.90
46784;DHT22;32544;52.832;13.816;2022-07-15T01:11:25;24.30;41.00
46784;DHT22;32544;52.832;13.816;2022-07-15T01:12:26;24.30;41.10
46784;DHT22;32544;52.832;13.816;2022-07-15T01:13:27;24.30;41.10
46784;DHT22;32544;52.832;13.816;2022-07-15T01:14:28;24.30;41.10
46784;DHT22;32544;52.832;13.816;2022-07-15T01:15:29;24.30;41.10
46784;DHT22;32544;52.832;13.816;2022-07-15T01:16:31;24.30;41.10
46784;DHT22;32544;52.832;13.816;2022-07-15T01:17:32;24.20;41.20
46784;DHT22;32544;52.832;13.816;2022-07-15T01:18:33;24.20;41.10
46784;DHT22;32544;52.832;13.816;2022-07-15T01:19:33;24.20;41.20
46784;DHT22;32544;52.832;13.816;2022-07-15T01:20:34;24.20;41.20
46784;DHT22;32544;52.832;13.816;2022-07-15T01:21:35;24.20;41.20
46784;DHT22;32544;52.832;13.816;2022-07-15T01:22:36;24.20;41.20
46784;DHT22;32544;52.832;13.816;2022-07-15T01:23:37;24.20;41.20
46784;DHT22;32544;52.832;13.816;2022-07-15T01:24:48;24.20;41.20
46784;DHT22;32544;52.832;13.816;2022-07-15T01:25:55;24.20;41.20
46784;DHT22;32544;52.832;13.816;2022-07-15T01:26:56;24.20;41.10
46784;DHT22;32544;52.832;13.816;2022-07-15T01:27:57;24.20;41.00
46784;DHT22;32544;52.832;13.816;2022-07-15T01:29:00;24.20;41.00
46784;DHT22;32544;52.832;13.816;2022-07-15T01:30:01;24.10;41.10
46784;DHT22;32544;52.832;13.816;2022-07-15T01:31:03;24.10;41.20
46784;DHT22;32544;52.832;13.816;2022-07-15T01:32:06;24.10;41.40
46784;DHT22;32544;52.832;13.816;2022-07-15T01:33:06;24.10;41.30
46784;DHT22;32544;52.832;13.816;2022-07-15T01:34:07;24.10;41.30
46784;DHT22;32544;52.832;13.816;2022-07-15T01:35:09;24.00;41.30
46784;DHT22;32544;52.832;13.816;2022-07-15T01:36:12;24.00;41.30
46784;DHT22;32544;52.832;13.816;2022-07-15T01:37:17;24.00;41.30
46784;DHT22;32544;52.832;13.816;2022-07-15T01:38:23;24.00;41.20
46784;DHT22;32544;52.832;13.816;2022-07-15T01:39:30;24.00;41.40
46784;DHT22;32544;52.832;13.816;2022-07-15T01:40:32;24.00;41.20
46784;DHT22;32544;52.832;13.816;2022-07-15T01:41:33;24.00;41.50
46784;DHT22;32544;52.832;13.816;2022-07-15T01:42:34;24.00;41.50
46784;DHT22;32544;52.832;13.816;2022-07-15T01:43:35;24.00;41.40
46784;DHT22;32544;52.832;13.816;2022-07-15T01:44:36;24.00;41.50
46784;DHT22;32544;52.832;13.816;2022-07-15T01:45:41;24.00;41.60
46784;DHT22;32544;52.832;13.816;2022-07-15T01:46:43;24.00;41.50
46784;DHT22;32544;52.832;13.816;2022-07-15T01:47:45;24.00;41.60
46784;DHT22;32544;52.832;13.816;2022-07-15T01:48:49;24.00;41.40
46784;DHT22;32544;52.832;13.816;2022-07-15T01:50:17;24.00;41.50
46784;DHT22;32544;52.832;13.816;2022-07-15T01:51:47;24.00;41.40
46784;DHT22;32544;52.832;13.816;2022-07-15T01:52:48;24.00;41.50
46784;DHT22;32544;52.832;13.816;2022-07-15T01:53:49;24.00;41.60
46784;DHT22;32544;52.832;13.816;2022-07-15T01:54:50;23.90;41.50
46784;DHT22;32544;52.832;13.816;2022-07-15T01:55:51;23.90;41.50
46784;DHT22;32544;52.832;13.816;2022-07-15T01:56:52;23.90;41.50
46784;DHT22;32544;52.832;13.816;2022-07-15T01:57:52;23.90;41.60
46784;DHT22;32544;52.832;13.816;2022-07-15T01:58:53;23.90;41.50
46784;DHT22;32544;52.832;13.816;2022-07-15T01:59:54;23.90;41.50
46784;DHT22;32544;52.832;13.816;2022-07-15T02:01:05;24.00;41.50
46784;DHT22;32544;52.832;13.816;2022-07-15T02:02:06;23.90;41.50
46784;DHT22;32544;52.832;13.816;2022-07-15T02:03:07;23.90;41.60
46784;DHT22;32544;52.832;13.816;2022-07-15T02:04:08;23.90;41.60
46784;DHT22;32544;52.832;13.816;2022-07-15T02:05:08;23.90;41.70
46784;DHT22;32544;52.832;13.816;2022-07-15T02:06:09;23.90;41.70
46784;DHT22;32544;52.832;13.816;2022-07-15T02:07:10;23.80;41.70
46784;DHT22;32544;52.832;13.816;2022-07-15T02:08:11;23.80;41.90
46784;DHT22;32544;52.832;13.816;2022-07-15T02:09:13;23.80;41.70
46784;DHT22;32544;52.832;13.816;2022-07-15T02:10:17;23.80;41.70
46784;DHT22;32544;52.832;13.816;2022-07-15T02:11:20;23.80;41.70
46784;DHT22;32544;52.832;13.816;2022-07-15T02:12:23;23.80;41.70
46784;DHT22;32544;52.832;13.816;2022-07-15T02:13:27;23.70;41.70
46784;DHT22;32544;52.832;13.816;2022-07-15T02:14:32;23.80;41.70
46784;DHT22;32544;52.832;13.816;2022-07-15T02:15:38;23.80;41.60
46784;DHT22;32544;52.832;13.816;2022-07-15T02:16:39;23.80;41.70
46784;DHT22;32544;52.832;13.816;2022-07-15T02:17:43;23.80;41.70
46784;DHT22;32544;52.832;13.816;2022-07-15T02:18:44;23.90;41.50
46784;DHT22;32544;52.832;13.816;2022-07-15T02:19:44;23.80;41.50
46784;DHT22;32544;52.832;13.816;2022-07-15T02:20:45;23.80;41.50
46784;DHT22;32544;52.832;13.816;2022-07-15T02:21:46;23.80;41.60
46784;DHT22;32544;52.832;13.816;2022-07-15T02:22:48;23.80;41.60
46784;DHT22;32544;52.832;13.816;2022-07-15T02:23:48;23.80;41.60
46784;DHT22;32544;52.832;13.816;2022-07-15T02:24:50;23.80;41.60
46784;DHT22;32544;52.832;13.816;2022-07-15T02:25:54;23.90;41.60
46784;DHT22;32544;52.832;13.816;2022-07-15T02:26:59;23.90;41.70
46784;DHT22;32544;52.832;13.816;2022-07-15T02:28:05;23.90;41.70
46784;DHT22;32544;52.832;13.816;2022-07-15T02:29:06;23.80;41.70
46784;DHT22;32544;52.832;13.816;2022-07-15T02:30:07;23.80;41.60
46784;DHT22;32544;52.832;13.816;2022-07-15T02:31:10;23.80;41.70
46784;DHT22;32544;52.832;13.816;2022-07-15T02:32:12;23.80;41.70
46784;DHT22;32544;52.832;13.816;2022-07-15T02:33:16;23.80;41.80
46784;DHT22;32544;52.832;13.816;2022-07-15T02:34:17;23.80;41.80
46784;DHT22;32544;52.832;13.816;2022-07-15T02:35:18;23.80;41.70
46784;DHT22;32544;52.832;13.816;2022-07-15T02:36:18;23.80;41.70
46784;DHT22;32544;52.832;13.816;2022-07-15T02:37:20;23.80;41.70
46784;DHT22;32544;52.832;13.816;2022-07-15T02:38:23;23.70;41.60
46784;DHT22;32544;52.832;13.816;2022-07-15T02:39:26;23.80;41.80
46784;DHT22;32544;52.832;13.816;2022-07-15T02:40:30;23.70;41.80
46784;DHT22;32544;52.832;13.816;2022-07-15T02:41:31;23.70;42.50
46784;DHT22;32544;52.832;13.816;2022-07-15T02:42:35;23.70;42.50
46784;DHT22;32544;52.832;13.816;2022-07-15T02:43:39;23.70;41.80
46784;DHT22;32544;52.832;13.816;2022-07-15T02:44:41;23.70;41.80
46784;DHT22;32544;52.832;13.816;2022-07-15T02:45:45;23.70;41.90
46784;DHT22;32544;52.832;13.816;2022-07-15T02:46:49;23.70;41.80
46784;DHT22;32544;52.832;13.816;2022-07-15T02:47:56;23.70;41.70
46784;DHT22;32544;52.832;13.816;2022-07-15T02:49:02;23.70;41.60
46784;DHT22;32544;52.832;13.816;2022-07-15T02:50:03;23.70;41.70
46784;DHT22;32544;52.832;13.816;2022-07-15T02:51:08;23.70;41.70
46784;DHT22;32544;52.832;13.816;2022-07-15T02:52:08;23.70;41.80
46784;DHT22;32544;52.832;13.816;2022-07-15T02:53:13;23.70;41.80
46784;DHT22;32544;52.832;13.816;2022-07-15T02:54:14;23.60;41.80
46784;DHT22;32544;52.832;13.816;2022-07-15T02:55:15;23.70;41.90
46784;DHT22;32544;52.832;13.816;2022-07-15T02:56:16;23.60;41.80
46784;DHT22;32544;52.832;13.816;2022-07-15T02:57:17;23.60;41.90
46784;DHT22;32544;52.832;13.816;2022-07-15T02:58:19;23.60;41.90
46784;DHT22;32544;52.832;13.816;2022-07-15T02:59:22;23.60;41.90
46784;DHT22;32544;52.832;13.816;2022-07-15T03:00:28;23.60;41.80
46784;DHT22;32544;52.832;13.816;2022-07-15T03:01:34;23.60;41.80
46784;DHT22;32544;52.832;13.816;2022-07-15T03:02:35;23.60;41.80
46784;DHT22;32544;52.832;13.816;2022-07-15T03:03:39;23.60;41.80
46784;DHT22;32544;52.832;13.816;2022-07-15T03:04:43;23.60;41.80
46784;DHT22;32544;52.832;13.816;2022-07-15T03:05:44;23.60;41.90
46784;DHT22;32544;52.832;13.816;2022-07-15T03:06:45;23.60;42.00
46784;DHT22;32544;52.832;13.816;2022-07-15T03:07:48;23.60;41.90
46784;DHT22;32544;52.832;13.816;2022-07-15T03:08:52;23.60;41.80
46784;DHT22;32544;52.832;13.816;2022-07-15T03:09:54;23.60;41.80
46784;DHT22;32544;52.832;13.816;2022-07-15T03:10:55;23.70;41.80
46784;DHT22;32544;52.832;13.816;2022-07-15T03:11:56;23.60;41.90
46784;DHT22;32544;52.832;13.816;2022-07-15T03:12:59;23.60;41.90
46784;DHT22;32544;52.832;13.816;2022-07-15T03:14:01;23.60;42.00
46784;DHT22;32544;52.832;13.816;2022-07-15T03:15:04;23.60;42.00
46784;DHT22;32544;52.832;13.816;2022-07-15T03:16:07;23.60;42.10
46784;DHT22;32544;52.832;13.816;2022-07-15T03:17:10;23.60;42.10
46784;DHT22;32544;52.832;13.816;2022-07-15T03:18:11;23.60;42.10
46784;DHT22;32544;52.832;13.816;2022-07-15T03:19:12;23.60;41.90
46784;DHT22;32544;52.832;13.816;2022-07-15T03:20:15;23.60;41.90
46784;DHT22;32544;52.832;13.816;2022-07-15T03:21:23;23.60;41.90
46784;DHT22;32544;52.832;13.816;2022-07-15T03:22:25;23.70;42.00
46784;DHT22;32544;52.832;13.816;2022-07-15T03:23:26;23.70;41.80
46784;DHT22;32544;52.832;13.816;2022-07-15T03:24:28;23.60;41.90
46784;DHT22;32544;52.832;13.816;2022-07-15T03:25:31;23.60;41.90
46784;DHT22;32544;52.832;13.816;2022-07-15T03:26:36;23.60;42.00
46784;DHT22;32544;52.832;13.816;2022-07-15T03:27:37;23.60;42.10
46784;DHT22;32544;52.832;13.816;2022-07-15T03:28:40;23.60;42.10
46784;DHT22;32544;52.832;13.816;2022-07-15T03:29:41;23.60;42.10
46784;DHT22;32544;52.832;13.816;2022-07-15T03:30:44;23.60;42.00
46784;DHT22;32544;52.832;13.816;2022-07-15T03:31:48;23.60;42.00
46784;DHT22;32544;52.832;13.816;2022-07-15T03:32:55;23.60;42.10
46784;DHT22;32544;52.832;13.816;2022-07-15T03:33:56;23.50;42.10
46784;DHT22;32544;52.832;13.816;2022-07-15T03:35:00;23.60;42.10
46784;DHT22;32544;52.832;13.816;2022-07-15T03:36:03;23.60;42.10
46784;DHT22;32544;52.832;13.816;2022-07-15T03:37:06;23.60;42.10
46784;DHT22;32544;52.832;13.816;2022-07-15T03:38:07;23.60;42.10
46784;DHT22;32544;52.832;13.816;2022-07-15T03:39:07;23.60;42.10
46784;DHT22;32544;52.832;13.816;2022-07-15T03:40:08;23.50;42.10
46784;DHT22;32544;52.832;13.816;2022-07-15T03:41:11;23.60;42.10
46784;DHT22;32544;52.832;13.816;2022-07-15T03:42:12;23.50;42.10
46784;DHT22;32544;52.832;13.816;2022-07-15T03:43:15;23.60;42.20
46784;DHT22;32544;52.832;13.816;2022-07-15T03:44:19;23.60;42.10
46784;DHT22;32544;52.832;13.816;2022-07-15T03:45:20;23.60;42.20
46784;DHT22;32544;52.832;13.816;2022-07-15T03:46:24;23.50;42.20
46784;DHT22;32544;52.832;13.816;2022-07-15T03:47:29;23.50;42.10
46784;DHT22;32544;52.832;13.816;2022-07-15T03:48:30;23.60;42.20
46784;DHT22;32544;52.832;13.816;2022-07-15T03:49:31;23.60;42.20
46784;DHT22;32544;52.832;13.816;2022-07-15T03:50:32;23.50;42.10
46784;DHT22;32544;52.832;13.816;2022-07-15T03:51:35;23.50;42.10
46784;DHT22;32544;52.832;13.816;2022-07-15T03:52:36;23.60;42.20
46784;DHT22;32544;52.832;13.816;2022-07-15T03:53:38;23.60;42.20
46784;DHT22;32544;52.832;13.816;2022-07-15T03:54:39;23.60;42.10
46784;DHT22;32544;52.832;13.816;2022-07-15T03:55:39;23.50;42.30
46784;DHT22;32544;52.832;13.816;2022-07-15T03:56:40;23.50;42.30
46784;DHT22;32544;52.832;13.816;2022-07-15T03:57:40;23.50;42.50
46784;DHT22;32544;52.832;13.816;2022-07-15T03:58:41;23.50;42.30
46784;DHT22;32544;52.832;13.816;2022-07-15T03:59:42;23.50;42.40
46784;DHT22;32544;52.832;13.816;2022-07-15T04:00:42;23.50;42.40
46784;DHT22;32544;52.832;13.816;2022-07-15T04:01:43;23.50;42.20
46784;DHT22;32544;52.832;13.816;2022-07-15T04:02:44;23.50;42.20
46784;DHT22;32544;52.832;13.816;2022-07-15T04:03:44;23.50;42.40
46784;DHT22;32544;52.832;13.816;2022-07-15T04:04:45;23.50;42.40
46784;DHT22;32544;52.832;13.816;2022-07-15T04:05:45;23.50;42.30
46784;DHT22;32544;52.832;13.816;2022-07-15T04:06:46;23.50;42.20
46784;DHT22;32544;52.832;13.816;2022-07-15T04:07:47;23.50;42.50
46784;DHT22;32544;52.832;13.816;2022-07-15T04:08:47;23.50;42.30
46784;DHT22;32544;52.832;13.816;2022-07-15T04:09:49;23.50;42.20
46784;DHT22;32544;52.832;13.816;2022-07-15T04:10:50;23.50;42.20
46784;DHT22;32544;52.832;13.816;2022-07-15T04:11:50;23.60;42.30
46784;DHT22;32544;52.832;13.816;2022-07-15T04:12:51;23.60;42.60
46784;DHT22;32544;52.832;13.816;2022-07-15T04:13:52;23.60;42.20
46784;DHT22;32544;52.832;13.816;2022-07-15T04:14:52;23.60;42.30
46784;DHT22;32544;52.832;13.816;2022-07-15T04:15:53;23.60;42.40
46784;DHT22;32544;52.832;13.816;2022-07-15T04:16:54;23.50;42.40
46784;DHT22;32544;52.832;13.816;2022-07-15T04:18:08;23.50;42.40
46784;DHT22;32544;52.832;13.816;2022-07-15T04:19:09;23.50;42.50
46784;DHT22;32544;52.832;13.816;2022-07-15T04:20:09;23.50;42.50
46784;DHT22;32544;52.832;13.816;2022-07-15T04:21:13;23.50;42.50
46784;DHT22;32544;52.832;13.816;2022-07-15T04:22:14;23.50;42.50
46784;DHT22;32544;52.832;13.816;2022-07-15T04:23:22;23.50;42.50
46784;DHT22;32544;52.832;13.816;2022-07-15T04:24:25;23.50;42.50
46784;DHT22;32544;52.832;13.816;2022-07-15T04:25:25;23.40;42.50
46784;DHT22;32544;52.832;13.816;2022-07-15T04:26:27;23.50;42.50
46784;DHT22;32544;52.832;13.816;2022-07-15T04:27:29;23.40;42.40
46784;DHT22;32544;52.832;13.816;2022-07-15T04:28:30;23.50;42.50
46784;DHT22;32544;52.832;13.816;2022-07-15T04:29:30;23.50;42.50
46784;DHT22;32544;52.832;13.816;2022-07-15T04:30:31;23.50;42.50
46784;DHT22;32544;52.832;13.816;2022-07-15T04:31:32;23.50;42.50
46784;DHT22;32544;52.832;13.816;2022-07-15T04:32:42;23.50;42.30
46784;DHT22;32544;52.832;13.816;2022-07-15T04:33:44;23.50;42.40
46784;DHT22;32544;52.832;13.816;2022-07-15T04:34:46;23.50;42.40
46784;DHT22;32544;52.832;13.816;2022-07-15T04:35:47;23.50;43.10
46784;DHT22;32544;52.832;13.816;2022-07-15T04:36:48;23.50;42.50
46784;DHT22;32544;52.832;13.816;2022-07-15T04:37:49;23.40;42.60
46784;DHT22;32544;52.832;13.816;2022-07-15T04:38:49;23.40;42.60
46784;DHT22;32544;52.832;13.816;2022-07-15T04:39:50;23.30;42.80
46784;DHT22;32544;52.832;13.816;2022-07-15T04:40:51;23.30;42.90
46784;DHT22;32544;52.832;13.816;2022-07-15T04:41:52;23.20;43.00
46784;DHT22;32544;52.832;13.816;2022-07-15T04:42:54;23.30;42.90
46784;DHT22;32544;52.832;13.816;2022-07-15T04:43:56;23.30;42.90
46784;DHT22;32544;52.832;13.816;2022-07-15T04:44:57;23.30;42.90
46784;DHT22;32544;52.832;13.816;2022-07-15T04:45:57;23.30;42.90
46784;DHT22;32544;52.832;13.816;2022-07-15T04:46:58;23.30;42.90
46784;DHT22;32544;52.832;13.816;2022-07-15T04:48:06;23.30;42.90
46784;DHT22;32544;52.832;13.816;2022-07-15T04:49:26;23.20;42.90
46784;DHT22;32544;52.832;13.816;2022-07-15T04:50:46;23.30;42.90
46784;DHT22;32544;52.832;13.816;2022-07-15T04:51:47;23.20;42.90
46784;DHT22;32544;52.832;13.816;2022-07-15T04:52:47;23.30;42.90
46784;DHT22;32544;52.832;13.816;2022-07-15T04:53:50;23.30;43.00
46784;DHT22;32544;52.832;13.816;2022-07-15T04:54:51;23.40;42.90
46784;DHT22;32544;52.832;13.816;2022-07-15T04:55:52;23.30;42.90
46784;DHT22;32544;52.832;13.816;2022-07-15T04:56:53;23.30;42.90
46784;DHT22;32544;52.832;13.816;2022-07-15T04:57:53;23.30;42.90
46784;DHT22;32544;52.832;13.816;2022-07-15T04:58:54;23.40;42.90
46784;DHT22;32544;52.832;13.816;2022-07-15T04:59:54;23.30;42.90
46784;DHT22;32544;52.832;13.816;2022-07-15T05:00:55;23.40;42.90
46784;DHT22;32544;52.832;13.816;2022-07-15T05:01:56;23.40;42.90
46784;DHT22;32544;52.832;13.816;2022-07-15T05:03:08;23.30;42.80
46784;DHT22;32544;52.832;13.816;2022-07-15T05:04:09;23.30;42.90
46784;DHT22;32544;52.832;13.816;2022-07-15T05:05:09;23.30;42.90
46784;DHT22;32544;52.832;13.816;2022-07-15T05:06:10;23.30;43.10
46784;DHT22;32544;52.832;13.816;2022-07-15T05:07:11;23.30;42.90
46784;DHT22;32544;52.832;13.816;2022-07-15T05:08:12;23.30;42.90
46784;DHT22;32544;52.832;13.816;2022-07-15T05:09:18;23.40;42.90
46784;DHT22;32544;52.832;13.816;2022-07-15T05:10:19;23.40;42.90
46784;DHT22;32544;52.832;13.816;2022-07-15T05:11:26;23.40;42.90
46784;DHT22;32544;52.832;13.816;2022-07-15T05:12:27;23.40;43.20
46784;DHT22;32544;52.832;13.816;2022-07-15T05:13:31;23.40;42.90
46784;DHT22;32544;52.832;13.816;2022-07-15T05:14:34;23.50;42.80
46784;DHT22;32544;52.832;13.816;2022-07-15T05:15:35;23.50;42.80
46784;DHT22;32544;52.832;13.816;2022-07-15T05:16:50;23.30;42.90
46784;DHT22;32544;52.832;13.816;2022-07-15T05:17:51;23.30;42.90
46784;DHT22;32544;52.832;13.816;2022-07-15T05:18:54;23.30;42.90
46784;DHT22;32544;52.832;13.816;2022-07-15T05:19:54;23.30;43.10
46784;DHT22;32544;52.832;13.816;2022-07-15T05:20:57;23.30;43.10
46784;DHT22;32544;52.832;13.816;2022-07-15T05:22:01;23.40;43.10
46784;DHT22;32544;52.832;13.816;2022-07-15T05:23:04;23.30;43.00
46784;DHT22;32544;52.832;13.816;2022-07-15T05:24:10;23.30;43.10
46784;DHT22;32544;52.832;13.816;2022-07-15T05:25:11;23.30;43.00
46784;DHT22;32544;52.832;13.816;2022-07-15T05:26:13;23.40;42.90
46784;DHT22;32544;52.832;13.816;2022-07-15T05:27:17;23.40;42.90
46784;DHT22;32544;52.832;13.816;2022-07-15T05:28:21;23.40;42.90
46784;DHT22;32544;52.832;13.816;2022-07-15T05:29:23;23.40;42.80
46784;DHT22;32544;52.832;13.816;2022-07-15T05:30:26;23.50;42.80
46784;DHT22;32544;52.832;13.816;2022-07-15T05:31:30;23.50;42.70
46784;DHT22;32544;52.832;13.816;2022-07-15T05:32:33;23.50;42.60
46784;DHT22;32544;52.832;13.816;2022-07-15T05:33:38;23.60;42.70
46784;DHT22;32544;52.832;13.816;2022-07-15T05:34:41;23.40;42.60
46784;DHT22;32544;52.832;13.816;2022-07-15T05:35:44;23.50;42.70
46784;DHT22;32544;52.832;13.816;2022-07-15T05:36:45;23.40;42.90
46784;DHT22;32544;52.832;13.816;2022-07-15T05:37:49;23.40;42.90
46784;DHT22;32544;52.832;13.816;2022-07-15T05:38:56;23.50;42.70
46784;DHT22;32544;52.832;13.816;2022-07-15T05:39:57;23.60;42.50
46784;DHT22;32544;52.832;13.816;2022-07-15T05:41:04;23.60;42.50
46784;DHT22;32544;52.832;13.816;2022-07-15T05:42:05;23.50;42.50
46784;DHT22;32544;52.832;13.816;2022-07-15T05:43:06;23.50;42.60
46784;DHT22;32544;52.832;13.816;2022-07-15T05:44:10;23.50;42.60
46784;DHT22;32544;52.832;13.816;2022-07-15T05:45:17;23.50;42.50
46784;DHT22;32544;52.832;13.816;2022-07-15T05:46:21;23.50;42.60
46784;DHT22;32544;52.832;13.816;2022-07-15T05:47:26;23.50;42.60
46784;DHT22;32544;52.832;13.816;2022-07-15T05:48:27;23.70;42.40
46784;DHT22;32544;52.832;13.816;2022-07-15T05:49:29;23.60;42.50
46784;DHT22;32544;52.832;13.816;2022-07-15T05:50:31;23.60;42.50
46784;DHT22;32544;52.832;13.816;2022-07-15T05:51:34;23.70;42.20
46784;DHT22;32544;52.832;13.816;2022-07-15T05:52:35;23.70;42.10
46784;DHT22;32544;52.832;13.816;2022-07-15T05:53:38;23.70;42.10
46784;DHT22;32544;52.832;13.816;2022-07-15T05:54:40;23.70;42.20
46784;DHT22;32544;52.832;13.816;2022-07-15T05:55:43;23.50;42.30
46784;DHT22;32544;52.832;13.816;2022-07-15T05:56:48;23.50;42.50
46784;DHT22;32544;52.832;13.816;2022-07-15T05:57:54;23.40;42.70
46784;DHT22;32544;52.832;13.816;2022-07-15T05:58:59;23.40;42.80
46784;DHT22;32544;52.832;13.816;2022-07-15T06:00:06;23.40;42.90
46784;DHT22;32544;52.832;13.816;2022-07-15T06:01:14;23.30;42.90
46784;DHT22;32544;52.832;13.816;2022-07-15T06:02:14;23.50;42.60
46784;DHT22;32544;52.832;13.816;2022-07-15T06:03:15;23.50;42.70
46784;DHT22;32544;52.832;13.816;2022-07-15T06:04:18;23.60;42.50
46784;DHT22;32544;52.832;13.816;2022-07-15T06:05:21;23.60;42.40
46784;DHT22;32544;52.832;13.816;2022-07-15T06:06:29;23.70;42.30
46784;DHT22;32544;52.832;13.816;2022-07-15T06:07:31;23.80;42.30
46784;DHT22;32544;52.832;13.816;2022-07-15T06:08:32;23.60;42.20
46784;DHT22;32544;52.832;13.816;2022-07-15T06:09:33;23.60;42.40
46784;DHT22;32544;52.832;13.816;2022-07-15T06:10:33;23.50;42.50
46784;DHT22;32544;52.832;13.816;2022-07-15T06:11:34;23.50;42.60
46784;DHT22;32544;52.832;13.816;2022-07-15T06:12:35;23.50;42.50
46784;DHT22;32544;52.832;13.816;2022-07-15T06:13:36;23.60;42.50
46784;DHT22;32544;52.832;13.816;2022-07-15T06:14:38;23.50;42.60
46784;DHT22;32544;52.832;13.816;2022-07-15T06:15:42;23.40;42.70
46784;DHT22;32544;52.832;13.816;2022-07-15T06:16:48;23.50;42.70
46784;DHT22;32544;52.832;13.816;2022-07-15T06:17:49;23.50;42.70
46784;DHT22;32544;52.832;13.816;2022-07-15T06:18:53;23.60;42.50
46784;DHT22;32544;52.832;13.816;2022-07-15T06:19:54;23.70;42.30
46784;DHT22;32544;52.832;13.816;2022-07-15T06:20:54;23.80;42.10
46784;DHT22;32544;52.832;13.816;2022-07-15T06:21:55;23.90;42.00
46784;DHT22;32544;52.832;13.816;2022-07-15T06:22:58;23.90;41.80
46784;DHT22;32544;52.832;13.816;2022-07-15T06:23:59;23.70;42.00
46784;DHT22;32544;52.832;13.816;2022-07-15T06:24:59;23.60;42.10
46784;DHT22;32544;52.832;13.816;2022-07-15T06:26:00;23.70;42.10
46784;DHT22;32544;52.832;13.816;2022-07-15T06:27:00;23.70;42.00